createdAt,value
2023-05-18T00:00:16.310Z,2.05
2023-05-18T00:03:07.242Z,2.10
2023-05-18T00:05:36.913Z,1.90
2023-05-18T00:08:05.720Z,1.70
2023-05-18T00:10:34.778Z,1.75
2023-05-18T00:13:05.373Z,2.13
2023-05-18T00:15:34.395Z,1.80
2023-05-18T00:18:03.153Z,1.65
2023-05-18T00:20:34.730Z,2.10
2023-05-18T00:23:03.550Z,2.00
2023-05-18T00:25:32.702Z,1.92
2023-05-18T00:28:01.450Z,1.95
2023-05-18T00:30:30.551Z,2.22
2023-05-18T00:32:59.508Z,2.25
2023-05-18T00:35:29.836Z,2.15
2023-05-18T00:38:00.315Z,2.10
2023-05-18T00:40:30.460Z,1.90
2023-05-18T00:43:05.363Z,2.38
2023-05-18T00:45:34.898Z,1.83
2023-05-18T00:48:07.452Z,2.05
2023-05-18T00:50:36.709Z,3.08
2023-05-18T00:53:06.861Z,2.00
2023-05-18T00:55:36.135Z,2.15
2023-05-18T00:58:05.554Z,2.03
2023-05-18T01:00:37.773Z,2.38
2023-05-18T01:03:10.619Z,2.40
2023-05-18T01:05:39.949Z,2.20
2023-05-18T01:08:10.278Z,2.40
2023-05-18T01:10:45.166Z,1.60
2023-05-18T01:13:26.631Z,1.80
2023-05-18T01:16:02.891Z,2.10
2023-05-18T01:18:43.672Z,2.10
2023-05-18T01:21:43.354Z,3.08
2023-05-18T01:24:32.170Z,2.00
2023-05-18T01:27:05.541Z,2.13
2023-05-18T01:29:35.577Z,2.03
2023-05-18T01:32:09.079Z,2.03
2023-05-18T01:34:37.840Z,2.25
2023-05-18T01:37:07.015Z,2.05
2023-05-18T01:39:36.238Z,1.90
2023-05-18T01:42:13.210Z,2.15
2023-05-18T01:44:49.145Z,1.98
2023-05-18T01:47:19.649Z,2.30
2023-05-18T01:49:59.720Z,1.80
2023-05-18T01:52:37.396Z,2.05
2023-05-18T01:55:09.500Z,2.28
2023-05-18T01:57:43.880Z,2.22
2023-05-18T02:00:14.440Z,1.95
2023-05-18T02:02:46.741Z,1.83
2023-05-18T02:05:18.300Z,2.08
2023-05-18T02:07:47.717Z,2.00
2023-05-18T02:10:17.592Z,2.03
2023-05-18T02:12:52.554Z,1.60
2023-05-18T02:15:22.566Z,2.22
2023-05-18T02:17:52.049Z,2.10
2023-05-18T02:20:21.035Z,2.38
2023-05-18T02:22:50.047Z,2.00
2023-05-18T02:25:19.156Z,2.13
2023-05-18T02:27:50.721Z,2.03
2023-05-18T02:30:20.041Z,2.17
2023-05-18T02:32:49.446Z,2.15
2023-05-18T02:35:19.049Z,2.05
2023-05-18T02:37:50.093Z,2.13
2023-05-18T02:40:19.146Z,2.38
2023-05-18T02:42:49.565Z,2.30
2023-05-18T02:45:20.877Z,2.28
2023-05-18T02:47:50.009Z,2.28
2023-05-18T02:50:19.124Z,2.47
2023-05-18T02:52:50.166Z,2.30
2023-05-18T02:55:19.991Z,1.90
2023-05-18T02:58:13.720Z,2.40
2023-05-18T03:01:13.319Z,2.42
2023-05-18T03:03:49.202Z,2.33
2023-05-18T03:06:18.042Z,2.45
2023-05-18T03:08:49.122Z,2.45
2023-05-18T03:11:18.460Z,3.13
2023-05-18T03:13:50.082Z,4.10
2023-05-18T03:16:19.189Z,4.57
2023-05-18T03:18:48.955Z,5.03
2023-05-18T03:21:17.952Z,5.72
2023-05-18T03:23:47.395Z,6.63
2023-05-18T03:26:16.838Z,6.68
2023-05-18T03:28:46.059Z,5.07
2023-05-18T03:31:16.376Z,4.70
2023-05-18T03:33:45.621Z,4.35
2023-05-18T03:36:16.752Z,4.78
2023-05-18T03:38:46.753Z,3.72
2023-05-18T03:41:16.896Z,3.05
2023-05-18T03:43:46.042Z,3.17
2023-05-18T03:46:16.521Z,2.63
2023-05-18T03:48:45.740Z,2.60
2023-05-18T03:51:16.737Z,3.05
2023-05-18T03:53:45.924Z,2.60
2023-05-18T03:56:14.705Z,2.50
2023-05-18T03:58:44.549Z,2.25
2023-05-18T04:01:13.460Z,2.15
2023-05-18T04:03:44.091Z,2.22
2023-05-18T04:06:13.390Z,2.15
2023-05-18T04:08:43.288Z,2.40
2023-05-18T04:11:12.920Z,2.88
2023-05-18T04:13:43.343Z,2.42
2023-05-18T04:16:13.593Z,2.38
2023-05-18T04:18:44.428Z,2.33
2023-05-18T04:21:13.234Z,2.67
2023-05-18T04:23:42.300Z,2.42
2023-05-18T04:26:11.129Z,2.78
2023-05-18T04:28:40.208Z,2.47
2023-05-18T04:31:09.023Z,2.45
2023-05-18T04:33:38.549Z,2.30
2023-05-18T04:36:10.094Z,2.25
2023-05-18T04:38:39.461Z,2.60
2023-05-18T04:41:09.189Z,2.50
2023-05-18T04:43:38.355Z,2.38
2023-05-18T04:46:07.991Z,2.28
2023-05-18T04:48:37.760Z,2.78
2023-05-18T04:51:08.037Z,2.33
2023-05-18T04:53:39.110Z,2.45
2023-05-18T04:56:08.583Z,2.53
2023-05-18T04:58:37.675Z,2.35
2023-05-18T05:01:07.003Z,2.22
2023-05-18T05:03:36.168Z,2.15
2023-05-18T05:06:05.398Z,2.20
2023-05-18T05:08:36.096Z,2.33
2023-05-18T05:11:05.123Z,2.22
2023-05-18T05:13:35.867Z,2.72
2023-05-18T05:16:05.102Z,2.58
2023-05-18T05:18:34.329Z,2.13
2023-05-18T05:21:03.257Z,2.35
2023-05-18T05:23:33.092Z,2.67
2023-05-18T05:26:03.523Z,2.35
2023-05-18T05:28:32.642Z,2.33
2023-05-18T05:31:01.651Z,2.10
2023-05-18T05:33:31.903Z,2.33
2023-05-18T05:36:00.739Z,2.10
2023-05-18T05:38:30.201Z,2.40
2023-05-18T05:40:59.518Z,2.50
2023-05-18T05:43:30.146Z,1.95
2023-05-18T05:45:58.936Z,2.20
2023-05-18T05:48:28.089Z,2.38
2023-05-18T05:50:57.018Z,2.30
2023-05-18T05:53:26.223Z,2.22
2023-05-18T05:55:55.320Z,2.10
2023-05-18T05:58:24.481Z,2.67
2023-05-18T06:00:59.330Z,2.40
2023-05-18T06:03:29.406Z,1.95
2023-05-18T06:06:01.269Z,2.15
2023-05-18T06:08:31.598Z,2.30
2023-05-18T06:11:00.425Z,2.22
2023-05-18T06:13:29.521Z,2.55
2023-05-18T06:16:00.861Z,2.33
2023-05-18T06:18:30.045Z,2.10
2023-05-18T06:21:03.078Z,2.10
2023-05-18T06:23:32.613Z,1.77
2023-05-18T06:26:11.842Z,2.00
2023-05-18T06:29:13.720Z,2.45
2023-05-18T06:31:57.777Z,2.30
2023-05-18T06:34:37.855Z,1.80
2023-05-18T06:37:07.497Z,1.88
2023-05-18T06:39:36.562Z,2.00
2023-05-18T06:42:06.385Z,1.48
2023-05-18T06:44:36.486Z,1.73
2023-05-18T06:47:14.563Z,1.65
2023-05-18T06:49:44.240Z,1.33
2023-05-18T06:52:13.867Z,2.22
2023-05-18T06:54:44.928Z,1.50
2023-05-18T06:57:13.765Z,1.48
2023-05-18T06:59:42.959Z,1.40
2023-05-18T07:02:11.776Z,1.48
2023-05-18T07:04:43.533Z,1.50
2023-05-18T07:07:12.396Z,1.20
2023-05-18T07:09:43.363Z,1.15
2023-05-18T07:12:12.370Z,1.00
2023-05-18T07:14:41.415Z,1.08
2023-05-18T07:17:10.274Z,1.25
2023-05-18T07:19:39.270Z,1.15
2023-05-18T07:22:09.568Z,1.02
2023-05-18T07:24:38.751Z,1.10
2023-05-18T07:27:07.555Z,0.90
2023-05-18T07:29:36.737Z,1.35
2023-05-18T07:32:06.240Z,1.10
2023-05-18T07:34:35.500Z,1.10
2023-05-18T07:37:05.207Z,1.00
2023-05-18T07:39:35.785Z,0.80
2023-05-18T07:42:05.363Z,1.15
2023-05-18T07:44:34.582Z,0.98
2023-05-18T07:47:03.788Z,1.25
2023-05-18T07:49:32.924Z,1.30
2023-05-18T07:52:02.659Z,1.10
2023-05-18T07:54:31.721Z,1.10
2023-05-18T07:57:01.864Z,0.88
2023-05-18T07:59:31.194Z,1.05
2023-05-18T08:02:00.122Z,1.08
2023-05-18T08:04:29.996Z,0.98
2023-05-18T08:07:00.737Z,1.48
2023-05-18T08:09:29.842Z,1.00
2023-05-18T08:11:59.456Z,0.80
2023-05-18T08:14:30.107Z,1.02
2023-05-18T08:16:59.009Z,1.27
2023-05-18T08:19:28.185Z,0.80
2023-05-18T08:21:57.022Z,0.80
2023-05-18T08:24:28.622Z,1.20
2023-05-18T08:26:57.767Z,1.00
2023-05-18T08:29:27.173Z,1.10
2023-05-18T08:31:57.493Z,1.30
2023-05-18T08:34:26.669Z,1.15
2023-05-18T08:36:55.387Z,0.98
2023-05-18T08:39:24.443Z,0.98
2023-05-18T08:42:02.354Z,1.30
2023-05-18T08:44:40.128Z,0.90
2023-05-18T08:47:12.088Z,1.48
2023-05-18T08:49:43.597Z,1.15
2023-05-18T08:52:19.680Z,1.42
2023-05-18T08:54:52.716Z,1.17
2023-05-18T08:57:23.557Z,1.08
2023-05-18T08:59:56.089Z,1.00
2023-05-18T09:02:27.548Z,0.77
2023-05-18T09:04:59.090Z,0.82
2023-05-18T09:07:29.850Z,0.75
2023-05-18T09:09:59.754Z,0.82
2023-05-18T09:12:31.480Z,0.80
2023-05-18T09:15:02.321Z,0.90
2023-05-18T09:17:32.848Z,1.00
2023-05-18T09:20:01.998Z,0.93
2023-05-18T09:22:30.757Z,1.02
2023-05-18T09:25:00.425Z,0.80
2023-05-18T09:27:30.031Z,1.10
2023-05-18T09:30:00.025Z,1.00
2023-05-18T09:32:29.896Z,1.27
2023-05-18T09:35:06.560Z,1.10
2023-05-18T09:37:36.164Z,1.35
2023-05-18T09:40:08.102Z,1.10
2023-05-18T09:42:38.566Z,1.02
2023-05-18T09:45:19.373Z,1.00
2023-05-18T09:47:50.907Z,1.45
2023-05-18T09:50:22.612Z,0.75
2023-05-18T09:52:52.258Z,0.90
2023-05-18T09:55:22.237Z,1.13
2023-05-18T09:57:52.330Z,1.20
2023-05-18T10:00:24.198Z,0.90
2023-05-18T10:02:54.327Z,1.13
2023-05-18T10:05:28.320Z,1.27
2023-05-18T10:07:58.376Z,1.40
2023-05-18T10:10:30.326Z,1.10
2023-05-18T10:12:59.768Z,1.17
2023-05-18T10:15:28.964Z,1.10
2023-05-18T10:18:00.929Z,1.00
2023-05-18T10:20:31.918Z,1.10
2023-05-18T10:23:06.586Z,1.00
2023-05-18T10:25:37.994Z,1.00
2023-05-18T10:28:11.565Z,1.10
2023-05-18T10:30:43.625Z,1.00
2023-05-18T10:33:24.542Z,0.98
2023-05-18T10:35:59.579Z,1.20
2023-05-18T10:38:30.144Z,1.00
2023-05-18T10:41:01.358Z,1.20
2023-05-18T10:43:30.775Z,1.77
2023-05-18T10:46:02.776Z,1.30
2023-05-18T10:48:31.782Z,1.65
2023-05-18T10:51:05.605Z,1.00
2023-05-18T10:53:36.606Z,1.10
2023-05-18T10:56:07.924Z,1.05
2023-05-18T10:58:39.723Z,1.02
2023-05-18T11:01:12.626Z,0.85
2023-05-18T11:03:42.131Z,0.85
2023-05-18T11:06:15.147Z,0.73
2023-05-18T11:08:47.596Z,0.90
2023-05-18T11:11:19.470Z,0.80
2023-05-18T11:13:51.874Z,0.73
2023-05-18T11:16:21.632Z,0.80
2023-05-18T11:18:52.780Z,0.80
2023-05-18T11:21:52.639Z,0.70
2023-05-18T11:24:30.598Z,0.90
2023-05-18T11:27:03.807Z,0.90
2023-05-18T11:29:35.962Z,1.00
2023-05-18T11:32:05.478Z,0.70
2023-05-18T11:34:44.850Z,0.70
2023-05-18T11:37:17.767Z,0.50
2023-05-18T11:39:59.687Z,0.60
2023-05-18T11:42:35.137Z,0.60
2023-05-18T11:45:12.040Z,0.70
2023-05-18T11:47:41.911Z,0.50
2023-05-18T11:50:12.978Z,0.60
2023-05-18T11:52:53.836Z,1.10
2023-05-18T11:55:23.192Z,0.50
2023-05-18T11:57:53.768Z,0.65
2023-05-18T12:00:25.184Z,0.55
2023-05-18T12:02:58.274Z,0.60
2023-05-18T12:05:31.787Z,0.70
2023-05-18T12:08:02.442Z,0.52
2023-05-18T12:10:32.271Z,0.60
2023-05-18T12:13:03.653Z,0.70
2023-05-18T12:15:33.592Z,0.50
2023-05-18T12:18:02.643Z,0.50
2023-05-18T12:20:32.231Z,0.65
2023-05-18T12:23:03.151Z,0.60
2023-05-18T12:25:32.335Z,0.50
2023-05-18T12:28:04.873Z,0.60
2023-05-18T12:30:36.352Z,0.52
2023-05-18T12:33:07.075Z,0.80
2023-05-18T12:35:36.145Z,0.70
2023-05-18T12:38:07.647Z,0.70
2023-05-18T12:40:44.458Z,1.38
2023-05-18T12:43:14.201Z,0.55
2023-05-18T12:45:46.053Z,0.70
2023-05-18T12:48:15.491Z,0.60
2023-05-18T12:50:52.106Z,0.60
2023-05-18T12:53:24.126Z,0.68
2023-05-18T12:55:59.542Z,0.50
2023-05-18T12:58:28.668Z,0.65
2023-05-18T13:00:57.381Z,0.63
2023-05-18T13:03:26.790Z,0.70
2023-05-18T13:06:07.022Z,0.60
2023-05-18T13:08:38.630Z,0.60
2023-05-18T13:11:14.823Z,0.70
2023-05-18T13:14:00.468Z,0.63
2023-05-18T13:16:30.491Z,1.17
2023-05-18T13:19:02.084Z,1.40
2023-05-18T13:21:31.425Z,0.90
2023-05-18T13:24:02.079Z,0.77
2023-05-18T13:26:31.219Z,0.70
2023-05-18T13:29:01.172Z,0.70
2023-05-18T13:31:30.639Z,1.20
2023-05-18T13:33:59.782Z,1.10
2023-05-18T13:36:29.844Z,0.80
2023-05-18T13:38:58.998Z,0.82
2023-05-18T13:41:29.213Z,0.90
2023-05-18T13:43:58.289Z,0.80
2023-05-18T13:46:27.143Z,0.93
2023-05-18T13:48:56.184Z,1.10
2023-05-18T13:51:25.001Z,0.75
2023-05-18T13:53:53.936Z,0.95
2023-05-18T13:56:22.689Z,0.90
2023-05-18T13:58:53.024Z,0.70
2023-05-18T14:01:22.386Z,0.75
2023-05-18T14:03:51.395Z,0.77
2023-05-18T14:06:20.932Z,0.90
2023-05-18T14:08:49.915Z,0.60
2023-05-18T14:11:18.689Z,0.73
2023-05-18T14:13:47.786Z,0.77
2023-05-18T14:16:17.914Z,0.55
2023-05-18T14:18:47.003Z,0.80
2023-05-18T14:21:15.683Z,0.73
2023-05-18T14:23:44.792Z,0.95
2023-05-18T14:26:13.511Z,0.52
2023-05-18T14:28:42.458Z,0.73
2023-05-18T14:31:11.258Z,0.82
2023-05-18T14:33:42.271Z,0.77
2023-05-18T14:36:11.091Z,0.77
2023-05-18T14:38:40.044Z,0.82
2023-05-18T14:41:09.814Z,0.90
2023-05-18T14:43:39.191Z,0.88
2023-05-18T14:46:08.955Z,0.82
2023-05-18T14:48:38.202Z,0.70
2023-05-18T14:51:08.343Z,0.65
2023-05-18T14:53:37.307Z,0.70
2023-05-18T14:56:09.108Z,0.82
2023-05-18T14:58:38.067Z,1.33
2023-05-18T15:01:07.192Z,0.88
2023-05-18T15:03:36.225Z,1.02
2023-05-18T15:06:05.495Z,0.70
2023-05-18T15:08:35.978Z,0.90
2023-05-18T15:11:04.671Z,0.70
2023-05-18T15:13:33.687Z,0.80
2023-05-18T15:16:02.839Z,0.85
2023-05-18T15:18:31.892Z,1.00
2023-05-18T15:21:00.994Z,0.85
2023-05-18T15:23:29.933Z,0.82
2023-05-18T15:26:00.106Z,1.02
2023-05-18T15:28:29.105Z,0.82
2023-05-18T15:30:57.868Z,0.90
2023-05-18T15:33:26.813Z,0.80
2023-05-18T15:35:55.688Z,0.80
2023-05-18T15:38:24.739Z,0.85
2023-05-18T15:40:53.454Z,0.88
2023-05-18T15:43:24.115Z,0.82
2023-05-18T15:45:53.066Z,0.70
2023-05-18T15:48:22.111Z,0.70
2023-05-18T15:50:50.993Z,0.90
2023-05-18T15:53:19.948Z,0.75
2023-05-18T15:55:50.785Z,0.70
2023-05-18T15:58:19.808Z,1.13
2023-05-18T16:00:50.280Z,0.90
2023-05-18T16:03:19.561Z,0.80
2023-05-18T16:05:48.721Z,0.90
2023-05-18T16:08:17.782Z,1.00
2023-05-18T16:10:46.907Z,1.10
2023-05-18T16:13:16.044Z,0.85
2023-05-18T16:15:44.755Z,0.70
2023-05-18T16:18:15.146Z,0.80
2023-05-18T16:20:43.951Z,0.80
2023-05-18T16:23:13.039Z,0.75
2023-05-18T16:25:41.871Z,0.90
2023-05-18T16:28:10.919Z,0.95
2023-05-18T16:30:39.611Z,1.10
2023-05-18T16:33:08.621Z,0.80
2023-05-18T16:35:39.286Z,0.90
2023-05-18T16:38:08.315Z,0.90
2023-05-18T16:40:37.046Z,0.80
2023-05-18T16:43:06.306Z,0.80
2023-05-18T16:45:35.153Z,1.00
2023-05-18T16:48:04.370Z,0.70
2023-05-18T16:50:33.487Z,1.00
2023-05-18T16:53:04.366Z,1.02
2023-05-18T16:55:33.195Z,1.23
2023-05-18T16:58:02.300Z,1.55
2023-05-18T17:00:31.647Z,1.17
2023-05-18T17:03:01.173Z,1.10
2023-05-18T17:05:29.990Z,0.90
2023-05-18T17:07:58.974Z,1.00
2023-05-18T17:10:29.218Z,1.08
2023-05-18T17:12:59.914Z,1.10
2023-05-18T17:15:30.400Z,1.15
2023-05-18T17:17:59.941Z,1.02
2023-05-18T17:20:29.025Z,1.00
2023-05-18T17:22:59.948Z,1.10
2023-05-18T17:25:31.973Z,1.08
2023-05-18T17:28:01.020Z,1.20
2023-05-18T17:30:30.018Z,0.90
2023-05-18T17:32:59.275Z,0.82
2023-05-18T17:35:28.180Z,1.23
2023-05-18T17:37:57.757Z,1.40
2023-05-18T17:40:26.937Z,1.33
2023-05-18T17:42:58.203Z,1.30
2023-05-18T17:45:27.216Z,1.10
2023-05-18T17:47:56.440Z,1.23
2023-05-18T17:50:25.334Z,1.00
2023-05-18T17:52:54.504Z,1.13
2023-05-18T17:55:23.339Z,1.35
2023-05-18T17:57:52.831Z,1.40
2023-05-18T18:00:23.996Z,1.30
2023-05-18T18:02:53.098Z,1.83
2023-05-18T18:05:22.164Z,2.50
2023-05-18T18:07:51.271Z,10.48
2023-05-18T18:10:20.087Z,9.20
2023-05-18T18:12:49.188Z,2.47
2023-05-18T18:15:19.467Z,1.80
2023-05-18T18:17:49.897Z,5.55
2023-05-18T18:20:18.649Z,3.63
2023-05-18T18:22:47.917Z,2.03
2023-05-18T18:25:16.756Z,1.80
2023-05-18T18:27:45.852Z,1.70
2023-05-18T18:30:16.317Z,1.75
2023-05-18T18:32:45.587Z,2.33
2023-05-18T18:35:16.154Z,1.70
2023-05-18T18:37:46.081Z,1.77
2023-05-18T18:40:15.740Z,1.67
2023-05-18T18:42:44.876Z,1.80
2023-05-18T18:45:13.795Z,1.55
2023-05-18T18:47:43.123Z,2.05
2023-05-18T18:50:12.473Z,1.80
2023-05-18T18:52:42.992Z,2.00
2023-05-18T18:55:11.801Z,2.00
2023-05-18T18:57:40.885Z,2.10
2023-05-18T19:00:12.018Z,2.00
2023-05-18T19:02:41.966Z,1.90
2023-05-18T19:05:11.794Z,2.28
2023-05-18T19:07:42.352Z,2.05
2023-05-18T19:10:12.007Z,1.52
2023-05-18T19:12:43.739Z,2.10
2023-05-18T19:15:14.293Z,1.85
2023-05-18T19:17:43.682Z,1.60
2023-05-18T19:20:13.018Z,2.20
2023-05-18T19:22:43.487Z,1.73
2023-05-18T19:25:12.425Z,1.92
2023-05-18T19:27:41.604Z,2.10
2023-05-18T19:30:13.210Z,2.30
2023-05-18T19:32:42.306Z,2.20
2023-05-18T19:35:11.187Z,2.00
2023-05-18T19:37:40.436Z,2.33
2023-05-18T19:40:11.798Z,2.30
2023-05-18T19:42:41.041Z,2.30
2023-05-18T19:45:10.350Z,1.88
2023-05-18T19:47:39.529Z,1.88
2023-05-18T19:50:10.454Z,2.20
2023-05-18T19:52:39.576Z,1.85
2023-05-18T19:55:10.402Z,1.73
2023-05-18T19:57:39.719Z,2.53
2023-05-18T20:00:11.120Z,1.83
2023-05-18T20:02:43.232Z,1.63
2023-05-18T20:05:12.703Z,1.88
2023-05-18T20:07:42.075Z,1.63
2023-05-18T20:10:12.356Z,1.75
2023-05-18T20:12:41.495Z,1.48
2023-05-18T20:15:11.123Z,1.48
2023-05-18T20:17:40.384Z,1.67
2023-05-18T20:20:10.613Z,1.67
2023-05-18T20:22:40.899Z,2.00
2023-05-18T20:25:12.130Z,1.60
2023-05-18T20:27:41.375Z,1.80
2023-05-18T20:30:11.418Z,1.58
2023-05-18T20:32:40.513Z,1.70
2023-05-18T20:35:09.475Z,1.95
2023-05-18T20:37:41.424Z,1.77
2023-05-18T20:40:13.504Z,2.00
2023-05-18T20:42:42.590Z,2.30
2023-05-18T20:45:12.420Z,1.95
2023-05-18T20:47:42.014Z,1.80
2023-05-18T20:50:11.441Z,2.00
2023-05-18T20:52:41.025Z,2.20
2023-05-18T20:55:13.740Z,2.08
2023-05-18T20:57:44.908Z,2.30
2023-05-18T21:00:15.110Z,2.28
2023-05-18T21:02:45.962Z,2.55
2023-05-18T21:05:16.330Z,2.33
2023-05-18T21:07:45.533Z,2.40
2023-05-18T21:10:15.725Z,2.13
2023-05-18T21:12:45.300Z,2.58
2023-05-18T21:15:14.069Z,2.15
2023-05-18T21:17:43.206Z,2.10
2023-05-18T21:20:12.918Z,2.20
2023-05-18T21:22:41.928Z,1.88
2023-05-18T21:25:10.936Z,1.95
2023-05-18T21:27:41.456Z,2.20
2023-05-18T21:30:12.256Z,1.88
2023-05-18T21:32:43.738Z,2.08
2023-05-18T21:35:12.597Z,1.80
2023-05-18T21:37:42.048Z,2.20
2023-05-18T21:40:11.522Z,1.73
2023-05-18T21:42:45.266Z,2.00
2023-05-18T21:45:14.632Z,1.90
2023-05-18T21:47:43.654Z,2.20
2023-05-18T21:50:13.015Z,1.90
2023-05-18T21:52:42.072Z,2.03
2023-05-18T21:55:11.384Z,1.63
2023-05-18T21:57:41.822Z,1.90
2023-05-18T22:00:13.974Z,1.63
2023-05-18T22:02:43.147Z,1.60
2023-05-18T22:05:12.248Z,1.75
2023-05-18T22:07:41.554Z,1.80
2023-05-18T22:10:11.265Z,1.70
2023-05-18T22:12:43.530Z,1.60
2023-05-18T22:15:12.882Z,1.90
2023-05-18T22:17:42.275Z,1.85
2023-05-18T22:20:11.917Z,1.60
2023-05-18T22:22:41.409Z,2.00
2023-05-18T22:25:11.084Z,2.20
2023-05-18T22:27:41.498Z,1.75
2023-05-18T22:30:11.603Z,1.67
2023-05-18T22:32:40.706Z,1.63
2023-05-18T22:35:11.196Z,1.90
2023-05-18T22:37:40.571Z,2.15
2023-05-18T22:40:11.013Z,1.95
2023-05-18T22:42:41.637Z,2.55
2023-05-18T22:45:12.603Z,1.98
2023-05-18T22:47:45.180Z,2.10
2023-05-18T22:50:14.070Z,2.28
2023-05-18T22:52:43.717Z,2.33
2023-05-18T22:55:13.985Z,2.28
2023-05-18T22:57:45.864Z,2.00
2023-05-18T23:00:16.586Z,2.17
2023-05-18T23:02:45.725Z,2.35
2023-05-18T23:05:15.901Z,1.98
2023-05-18T23:07:44.944Z,2.22
2023-05-18T23:10:14.396Z,2.22
2023-05-18T23:12:45.664Z,2.00
2023-05-18T23:15:15.454Z,2.78
2023-05-18T23:17:56.668Z,2.53
2023-05-18T23:20:25.500Z,2.60
2023-05-18T23:22:54.533Z,2.47
2023-05-18T23:25:23.652Z,2.67
2023-05-18T23:27:54.069Z,2.78
2023-05-18T23:30:23.048Z,2.38
2023-05-18T23:32:53.292Z,2.70
2023-05-18T23:35:22.673Z,2.80
2023-05-18T23:37:54.829Z,2.83
2023-05-18T23:40:24.257Z,2.80
2023-05-18T23:42:55.853Z,2.60
2023-05-18T23:45:25.189Z,2.42
2023-05-18T23:47:56.224Z,2.42
2023-05-18T23:50:26.006Z,2.58
2023-05-18T23:52:56.302Z,2.58
2023-05-18T23:55:27.900Z,2.42
2023-05-18T23:57:59.788Z,2.00
